WMKN

Sultan Mahmud Airport

Kuala Terengganu, Malaysia
TAF WMKN 221100Z 2212/2312 05006KT 9999 SCT020 BKN300
Issued Valid From Valid To
Jan-22 @ 11:00 UTC
(7 hours ago)
Jan-22 @ 12:00 UTC
(6 hours ago)
Jan-23 @ 12:00 UTC
(in 18 hours)
Jan-22 @ 12:00 to Jan-23 @ 12:00
TAF WMKN 221100Z 2212/2312 05006KT 9999 SCT020 BKN300
Wind Visibility Clouds
50° at 6 knots 10,000+ meters
  • Scattered at 2,000' AGL
  • Broken at 30,000' AGL
TAF WMKN 221100Z 2212/2312 05006KT 9999 SCT020 BKN300
Issued Jan-22 @ 11:00 UTC
(7 hours ago)
Valid From Jan-22 @ 12:00 UTC
(6 hours ago)
Valid To Jan-23 @ 12:00 UTC
(in 18 hours)
Jan-22 @ 12:00 - Jan-23 @ 12:00
Wind Visibility
50° at 6 knots 10,000+ meters
Clouds
  • Scattered at 2,000' AGL
  • Broken at 30,000' AGL